Time;durP1;ratioP1;P1;durP2;ratioP2;P2;SDS_P1;SDS_P2;PMS_P1;PMS_P2;Temp;Humidity;BMP_temperature;BMP_pressure;BME280_temperature;BME280_humidity;BME280_pressure;Samples;Min_cycle;Max_cycle;Signal;HPM_P1;HPM_P2
2023/09/03 00:01:01;;;;;;;3.03;1.17;;;14.80;99.90;;;;;;6158144;23;20016;-87
2023/09/03 00:03:26;;;;;;;4.15;2.08;;;14.60;99.90;;;;;;6158359;23;20024;-87
2023/09/03 00:05:56;;;;;;;5.00;2.47;;;14.70;99.90;;;;;;6158381;23;20405;-87
2023/09/03 00:08:23;;;;;;;3.42;1.63;;;14.70;99.90;;;;;;6158660;23;20005;-87
2023/09/03 00:10:53;;;;;;;5.18;2.40;;;14.60;99.90;;;;;;6158338;23;20091;-87
2023/09/03 00:13:19;;;;;;;7.00;1.65;;;14.60;99.90;;;;;;6158333;23;20048;-87
2023/09/03 00:15:45;;;;;;;3.42;1.13;;;14.50;99.90;;;;;;6158171;23;20351;-87
2023/09/03 00:18:12;;;;;;;3.53;1.20;;;14.40;99.90;;;;;;6133436;23;20009;-87
2023/09/03 00:20:38;;;;;;;3.55;1.80;;;14.30;99.90;;;;;;6133331;23;20024;-87
2023/09/03 00:23:05;;;;;;;4.80;1.80;;;14.30;99.90;;;;;;6133861;23;20016;-87
2023/09/03 00:25:36;;;;;;;4.82;2.00;;;14.30;99.90;;;;;;6133950;23;20473;-87
2023/09/03 00:28:03;;;;;;;6.90;4.17;;;14.10;99.90;;;;;;6157474;23;20462;-87
2023/09/03 00:30:29;;;;;;;7.90;4.60;;;14.20;99.90;;;;;;6133241;23;20032;-87
2023/09/03 00:32:54;;;;;;;6.70;3.33;;;14.30;99.90;;;;;;6157851;23;20017;-88
2023/09/03 00:35:20;;;;;;;4.60;1.85;;;14.20;99.90;;;;;;6158030;23;20095;-87
2023/09/03 00:37:46;;;;;;;5.88;2.53;;;14.10;99.90;;;;;;6157832;23;20019;-87
2023/09/03 00:40:11;;;;;;;7.82;3.70;;;14.00;99.90;;;;;;6133111;23;20005;-87
2023/09/03 00:42:37;;;;;;;7.55;3.90;;;13.90;99.90;;;;;;6158810;23;20099;-86
2023/09/03 00:45:03;;;;;;;6.45;2.40;;;14.00;99.90;;;;;;6158210;23;20354;-87
2023/09/03 00:47:29;;;;;;;8.45;5.95;;;13.90;99.90;;;;;;6154731;23;20439;-87
2023/09/03 00:49:55;;;;;;;6.35;3.10;;;13.90;99.90;;;;;;6154066;23;20006;-87
2023/09/03 00:52:23;;;;;;;10.80;4.65;;;13.90;99.90;;;;;;6129984;23;20005;-87
2023/09/03 00:54:48;;;;;;;6.90;3.00;;;13.90;99.90;;;;;;6132968;23;20062;-87
2023/09/03 00:57:14;;;;;;;7.97;3.95;;;13.80;99.90;;;;;;6132113;23;20096;-87
2023/09/03 00:59:41;;;;;;;7.28;4.70;;;13.80;99.90;;;;;;6156560;23;20465;-87
2023/09/03 01:02:08;;;;;;;5.80;2.40;;;13.90;99.90;;;;;;6133517;23;20096;-87
2023/09/03 01:04:33;;;;;;;7.30;3.90;;;13.80;99.90;;;;;;6157984;23;20492;-87
2023/09/03 01:06:59;;;;;;;5.13;2.05;;;13.90;99.90;;;;;;6133550;23;20095;-88
2023/09/03 01:09:25;;;;;;;7.75;3.70;;;13.80;99.90;;;;;;6156807;23;20479;-87
2023/09/03 01:12:07;;;;;;;4.22;1.65;;;13.80;99.90;;;;;;6133159;23;20024;-87
2023/09/03 01:14:50;;;;;;;7.28;2.17;;;13.80;99.90;;;;;;6158000;23;20046;-87
2023/09/03 01:17:21;;;;;;;6.18;3.00;;;13.70;99.90;;;;;;6157787;23;20020;-87
2023/09/03 01:20:09;;;;;;;4.97;1.80;;;13.70;99.90;;;;;;6157611;23;20045;-87
2023/09/03 01:22:58;;;;;;;3.55;1.40;;;13.70;99.90;;;;;;6133144;23;20009;-87
2023/09/03 01:25:45;;;;;;;5.03;2.40;;;13.60;99.90;;;;;;6184513;23;20017;-87
2023/09/03 01:28:24;;;;;;;5.47;2.90;;;13.60;99.90;;;;;;6157262;23;20023;-87
2023/09/03 01:30:55;;;;;;;6.75;3.80;;;13.50;99.90;;;;;;6157483;23;20058;-88
2023/09/03 01:33:21;;;;;;;6.50;2.58;;;13.50;99.90;;;;;;6157604;23;20013;-87
2023/09/03 01:35:48;;;;;;;8.68;3.80;;;13.50;99.90;;;;;;6157590;23;20099;-87
2023/09/03 01:38:14;;;;;;;7.95;3.22;;;13.40;99.90;;;;;;6156733;23;20092;-87
2023/09/03 01:40:40;;;;;;;7.55;3.28;;;13.40;99.90;;;;;;6157369;23;20096;-87
2023/09/03 01:43:05;;;;;;;8.65;3.88;;;13.30;99.90;;;;;;6157476;23;20040;-87
2023/09/03 01:45:53;;;;;;;7.43;2.38;;;13.30;99.90;;;;;;6157435;23;20332;-87
2023/09/03 01:49:01;;;;;;;7.03;4.82;;;13.30;99.90;;;;;;6157468;23;20071;-87
2023/09/03 01:51:53;;;;;;;7.50;2.05;;;13.30;99.90;;;;;;6132802;23;20045;-87
2023/09/03 01:54:25;;;;;;;8.52;3.63;;;13.30;99.90;;;;;;6157403;23;20017;-87
2023/09/03 01:57:05;;;;;;;8.82;6.50;;;13.30;99.90;;;;;;6132611;23;20012;-87
2023/09/03 02:00:07;;;;;;;32.47;10.02;;;13.40;99.90;;;;;;6132256;23;20044;-87
2023/09/03 02:02:34;;;;;;;11.45;4.68;;;13.40;99.90;;;;;;6121238;23;20092;-87
2023/09/03 02:04:59;;;;;;;8.93;4.07;;;13.30;99.90;;;;;;6157369;23;20056;-87
2023/09/03 02:07:25;;;;;;;9.13;3.92;;;13.20;99.90;;;;;;6157273;23;20013;-87
2023/09/03 02:09:51;;;;;;;9.82;8.40;;;13.20;99.90;;;;;;6131763;23;20458;-87
2023/09/03 02:12:23;;;;;;;9.43;4.72;;;13.30;99.90;;;;;;6157102;23;20013;-87
2023/09/03 02:14:49;;;;;;;9.50;5.35;;;13.30;99.90;;;;;;6132948;23;20016;-87
2023/09/03 02:17:19;;;;;;;9.30;7.57;;;13.30;99.90;;;;;;6156876;23;20078;-87
2023/09/03 02:19:48;;;;;;;6.60;2.83;;;13.40;99.90;;;;;;6156749;23;20013;-87
2023/09/03 02:22:13;;;;;;;7.35;2.65;;;13.40;99.90;;;;;;6157596;23;20088;-87
2023/09/03 02:24:39;;;;;;;5.75;2.70;;;13.30;99.90;;;;;;6157704;23;20009;-87
2023/09/03 02:27:05;;;;;;;6.65;3.17;;;13.30;99.90;;;;;;6157323;23;20507;-87
2023/09/03 02:29:30;;;;;;;7.88;3.38;;;13.30;99.90;;;;;;6156881;23;20351;-88
2023/09/03 02:31:56;;;;;;;8.48;6.30;;;13.20;99.90;;;;;;6157237;23;20088;-88
2023/09/03 02:34:21;;;;;;;7.93;3.63;;;13.30;99.90;;;;;;6157226;23;20032;-87
2023/09/03 02:36:47;;;;;;;10.55;7.10;;;13.30;99.90;;;;;;6157117;23;20017;-87
2023/09/03 02:39:13;;;;;;;10.70;8.07;;;13.40;99.90;;;;;;6156574;23;20429;-87
2023/09/03 02:41:39;;;;;;;13.10;10.55;;;13.40;99.90;;;;;;6132680;23;20092;-87
2023/09/03 02:44:07;;;;;;;9.32;4.38;;;13.50;99.90;;;;;;6157474;23;20096;-87
2023/09/03 02:46:33;;;;;;;9.43;4.40;;;13.40;99.90;;;;;;6132583;23;20017;-87
2023/09/03 02:48:58;;;;;;;11.02;4.85;;;13.30;99.90;;;;;;6156640;23;20399;-86
2023/09/03 02:51:24;;;;;;;8.88;4.07;;;13.30;99.90;;;;;;6157346;23;20049;-87
2023/09/03 02:53:54;;;;;;;9.13;3.63;;;13.20;99.90;;;;;;6157281;23;20013;-87
2023/09/03 02:56:23;;;;;;;9.32;5.90;;;13.20;99.90;;;;;;6156859;23;20017;-86
2023/09/03 02:58:49;;;;;;;7.32;3.22;;;13.30;99.90;;;;;;6156460;23;20037;-87
2023/09/03 03:01:17;;;;;;;7.82;3.03;;;13.20;99.90;;;;;;6157462;23;20005;-86
2023/09/03 03:03:44;;;;;;;5.57;2.50;;;13.10;99.90;;;;;;6134504;23;20016;-87
2023/09/03 03:06:10;;;;;;;3.85;1.60;;;13.10;99.90;;;;;;6158952;23;20008;-86
2023/09/03 03:08:36;;;;;;;4.32;1.67;;;13.10;99.90;;;;;;6134353;23;20013;-87
2023/09/03 03:11:13;;;;;;;5.57;3.20;;;13.10;99.90;;;;;;6158894;23;20057;-87
2023/09/03 03:13:39;;;;;;;4.47;2.10;;;13.10;99.90;;;;;;6158888;23;20405;-87
2023/09/03 03:16:10;;;;;;;6.43;2.88;;;13.10;99.90;;;;;;6134169;23;20052;-87
2023/09/03 03:18:37;;;;;;;8.95;5.47;;;12.90;99.90;;;;;;6133864;23;20051;-87
2023/09/03 03:21:10;;;;;;;7.72;3.72;;;13.00;99.90;;;;;;6134071;23;20481;-87
2023/09/03 03:23:37;;;;;;;6.57;2.75;;;12.90;99.90;;;;;;6158950;23;20009;-87
2023/09/03 03:26:04;;;;;;;7.75;5.13;;;12.90;99.90;;;;;;6134043;23;20013;-87
2023/09/03 03:28:31;;;;;;;7.93;5.13;;;13.00;99.90;;;;;;6158436;23;20009;-87
2023/09/03 03:30:59;;;;;;;8.73;6.10;;;13.10;99.90;;;;;;6134014;23;20439;-87
2023/09/03 03:33:26;;;;;;;7.50;3.70;;;13.10;99.90;;;;;;6158894;23;20031;-86
2023/09/03 03:35:51;;;;;;;7.55;3.55;;;13.00;99.90;;;;;;6158566;23;20009;-87
2023/09/03 03:38:17;;;;;;;27.98;3.10;;;13.00;99.90;;;;;;6158121;23;20129;-86
2023/09/03 03:40:42;;;;;;;7.50;2.42;;;12.90;99.90;;;;;;6158521;23;20024;-86
2023/09/03 03:43:08;;;;;;;6.93;2.53;;;12.80;99.90;;;;;;6158982;23;20012;-87
2023/09/03 03:45:33;;;;;;;54.67;6.95;;;12.80;99.90;;;;;;6158883;23;20009;-86
2023/09/03 03:47:59;;;;;;;6.03;2.60;;;12.80;99.90;;;;;;6158639;23;20091;-87
2023/09/03 03:50:28;;;;;;;9.50;4.03;;;12.70;99.90;;;;;;6133818;23;20063;-87
2023/09/03 03:52:53;;;;;;;14.77;2.60;;;12.70;99.90;;;;;;6158542;23;20027;-87
2023/09/03 03:55:19;;;;;;;24.15;2.67;;;12.60;99.90;;;;;;6133824;23;20009;-86
2023/09/03 03:57:45;;;;;;;11.38;6.20;;;12.50;99.90;;;;;;6134012;23;20017;-87
2023/09/03 04:00:10;;;;;;;5.88;2.33;;;12.60;99.90;;;;;;6133255;23;20013;-87
2023/09/03 04:02:36;;;;;;;7.75;5.22;;;12.50;99.90;;;;;;6134144;23;20462;-86
2023/09/03 04:05:02;;;;;;;7.05;3.08;;;12.50;99.90;;;;;;6133591;23;20019;-86
2023/09/03 04:07:27;;;;;;;7.28;2.67;;;12.50;99.90;;;;;;6158557;23;20462;-86
2023/09/03 04:09:54;;;;;;;9.05;3.30;;;12.50;99.90;;;;;;6157345;23;20092;-87
2023/09/03 04:12:19;;;;;;;6.28;2.70;;;12.40;99.90;;;;;;6158167;23;20013;-86
2023/09/03 04:14:45;;;;;;;12.85;6.70;;;12.30;99.90;;;;;;6158293;23;20361;-88
2023/09/03 04:17:10;;;;;;;8.02;5.68;;;12.40;99.90;;;;;;6157805;23;20092;-87
2023/09/03 04:19:37;;;;;;;7.43;3.35;;;12.50;99.90;;;;;;6132705;23;20060;-87
2023/09/03 04:22:03;;;;;;;7.07;2.60;;;12.40;99.90;;;;;;6133837;23;20355;-86
2023/09/03 04:24:28;;;;;;;7.85;3.50;;;12.40;99.90;;;;;;6158562;23;20463;-86
2023/09/03 04:26:54;;;;;;;7.50;3.17;;;12.30;99.90;;;;;;6158213;23;20020;-87
2023/09/03 04:29:19;;;;;;;7.53;3.22;;;12.40;99.90;;;;;;6132008;23;20020;-87
2023/09/03 04:31:45;;;;;;;6.65;3.10;;;12.30;99.90;;;;;;6157310;23;20009;-87
2023/09/03 04:34:12;;;;;;;8.15;3.10;;;12.30;99.90;;;;;;6158130;23;20462;-87
2023/09/03 04:36:38;;;;;;;8.98;5.70;;;12.30;99.90;;;;;;6158101;23;20021;-86
2023/09/03 04:39:04;;;;;;;8.05;3.05;;;12.40;99.90;;;;;;6157606;23;20067;-86
2023/09/03 04:41:29;;;;;;;12.68;5.07;;;12.40;99.90;;;;;;6157757;23;20016;-86
2023/09/03 04:44:10;;;;;;;7.80;3.40;;;12.40;99.90;;;;;;6158056;23;20489;-86
2023/09/03 04:46:35;;;;;;;4.97;2.03;;;12.40;99.90;;;;;;6157909;23;20024;-87
2023/09/03 04:49:01;;;;;;;5.22;2.15;;;12.30;99.90;;;;;;6157751;23;20013;-87
2023/09/03 04:51:27;;;;;;;6.35;2.22;;;12.20;99.90;;;;;;6133167;23;20013;-87
2023/09/03 04:53:53;;;;;;;5.55;2.25;;;12.20;99.90;;;;;;6158051;23;20020;-87
2023/09/03 04:56:18;;;;;;;4.97;2.00;;;12.10;99.90;;;;;;6157951;23;20076;-87
2023/09/03 04:58:44;;;;;;;6.13;2.65;;;12.10;99.90;;;;;;6156930;23;20020;-87
2023/09/03 05:01:16;;;;;;;7.85;5.63;;;12.10;99.90;;;;;;6157668;23;20361;-87
2023/09/03 05:03:42;;;;;;;6.30;2.92;;;12.20;99.90;;;;;;6157440;23;20013;-87
2023/09/03 05:06:13;;;;;;;6.70;2.90;;;12.20;99.90;;;;;;6158083;23;20351;-87
2023/09/03 05:08:39;;;;;;;7.20;3.00;;;12.10;99.90;;;;;;6157399;23;20012;-86
2023/09/03 05:11:11;;;;;;;6.20;2.75;;;12.10;99.90;;;;;;6157330;23;20025;-87
2023/09/03 05:13:37;;;;;;;11.10;2.60;;;12.10;99.90;;;;;;6157800;23;20108;-87
2023/09/03 05:16:04;;;;;;;4.93;2.13;;;12.10;99.90;;;;;;6157729;23;20726;-87
2023/09/03 05:18:30;;;;;;;7.13;3.30;;;12.10;99.90;;;;;;6133084;23;20092;-86
2023/09/03 05:20:56;;;;;;;8.25;6.68;;;12.10;99.90;;;;;;6157734;23;20036;-86
2023/09/03 05:23:22;;;;;;;7.60;3.63;;;12.20;99.90;;;;;;6133522;23;20458;-86
2023/09/03 05:25:48;;;;;;;8.48;5.90;;;12.20;99.90;;;;;;6132476;23;20071;-87
2023/09/03 05:28:13;;;;;;;7.00;3.33;;;12.30;99.90;;;;;;6156730;23;20017;-85
2023/09/03 05:30:39;;;;;;;6.60;2.97;;;12.20;99.90;;;;;;6157606;23;20100;-86
2023/09/03 05:33:04;;;;;;;8.30;5.82;;;12.20;99.90;;;;;;6157359;23;20016;-87
2023/09/03 05:35:30;;;;;;;6.72;3.13;;;12.30;99.90;;;;;;6157230;23;20024;-85
2023/09/03 05:37:55;;;;;;;8.23;5.93;;;12.30;99.90;;;;;;6157191;23;20013;-86
2023/09/03 05:40:21;;;;;;;6.18;2.88;;;12.30;99.90;;;;;;6157357;23;20009;-87
2023/09/03 05:42:48;;;;;;;6.38;2.45;;;12.30;99.90;;;;;;6157905;23;20351;-87
2023/09/03 05:45:13;;;;;;;6.50;2.53;;;12.30;99.90;;;;;;6157992;23;20021;-87
2023/09/03 05:47:39;;;;;;;5.97;2.33;;;12.20;99.90;;;;;;6133237;23;20028;-86
2023/09/03 05:50:05;;;;;;;6.28;2.67;;;12.20;99.90;;;;;;6156214;23;20021;-86
2023/09/03 05:52:31;;;;;;;5.80;2.28;;;12.20;99.90;;;;;;6156451;23;20436;-86
2023/09/03 05:54:57;;;;;;;5.93;2.85;;;12.20;99.90;;;;;;6131944;23;20501;-86
2023/09/03 05:57:23;;;;;;;5.90;2.45;;;12.20;99.90;;;;;;6156765;23;20099;-86
2023/09/03 05:59:50;;;;;;;7.03;2.60;;;12.20;99.90;;;;;;6156925;23;20009;-86
2023/09/03 06:02:16;;;;;;;8.55;6.85;;;12.20;99.90;;;;;;6133096;23;20009;-87
2023/09/03 06:04:42;;;;;;;7.15;3.45;;;12.30;99.90;;;;;;6157047;23;20343;-86
2023/09/03 06:07:09;;;;;;;6.15;2.63;;;12.30;99.90;;;;;;6157551;23;20489;-87
2023/09/03 06:09:35;;;;;;;7.90;3.92;;;12.30;99.90;;;;;;6156906;23;20013;-87
2023/09/03 06:12:01;;;;;;;7.97;3.40;;;12.40;99.90;;;;;;6157337;23;20017;-87
2023/09/03 06:14:27;;;;;;;9.25;8.25;;;12.40;99.90;;;;;;6157267;23;20020;-87
2023/09/03 06:16:54;;;;;;;8.95;7.38;;;12.60;99.90;;;;;;6157752;23;20443;-86
2023/09/03 06:19:21;;;;;;;7.93;4.20;;;12.70;99.90;;;;;;6157163;23;20020;-86
2023/09/03 06:21:47;;;;;;;7.35;3.78;;;12.80;99.90;;;;;;6157360;23;20060;-86
2023/09/03 06:24:15;;;;;;;8.50;7.30;;;12.80;99.90;;;;;;6132584;23;20037;-87
2023/09/03 06:26:41;;;;;;;7.60;3.97;;;12.90;99.90;;;;;;6132761;23;20092;-87
2023/09/03 06:29:06;;;;;;;7.88;3.83;;;12.90;99.90;;;;;;6132140;23;20454;-87
2023/09/03 06:31:32;;;;;;;8.75;4.38;;;13.00;99.90;;;;;;6157047;23;20020;-87
2023/09/03 06:33:58;;;;;;;8.32;4.38;;;13.00;99.90;;;;;;6157395;23;20031;-87
2023/09/03 06:36:24;;;;;;;10.98;6.20;;;13.10;99.90;;;;;;6157859;23;20024;-87
2023/09/03 06:38:50;;;;;;;12.05;10.90;;;13.20;99.90;;;;;;6132961;23;20016;-87
2023/09/03 06:41:16;;;;;;;9.15;5.47;;;13.30;99.90;;;;;;6133973;23;20008;-87
2023/09/03 06:43:42;;;;;;;10.25;9.23;;;13.40;99.90;;;;;;6135098;23;20450;-87
2023/09/03 06:46:08;;;;;;;12.23;11.02;;;13.50;99.90;;;;;;6159365;23;20019;-87
2023/09/03 06:48:34;;;;;;;13.80;12.50;;;13.70;99.90;;;;;;6134570;23;20011;-87
2023/09/03 06:51:00;;;;;;;14.57;5.18;;;13.80;99.90;;;;;;6158546;23;20215;-87
2023/09/03 06:53:25;;;;;;;14.23;12.82;;;13.70;99.90;;;;;;6159258;23;20394;-88
2023/09/03 06:55:52;;;;;;;13.27;11.73;;;13.80;99.90;;;;;;6134320;23;20012;-88
2023/09/03 06:58:17;;;;;;;13.95;12.55;;;14.00;99.90;;;;;;6158832;23;20405;-87
2023/09/03 07:00:43;;;;;;;12.77;5.70;;;14.10;99.90;;;;;;6134477;23;20013;-88
2023/09/03 07:03:09;;;;;;;13.68;5.55;;;14.10;99.90;;;;;;6134851;23;20016;-87
2023/09/03 07:05:35;;;;;;;13.50;12.20;;;14.00;99.90;;;;;;6134560;23;20016;-87
2023/09/03 07:08:00;;;;;;;11.48;6.18;;;14.10;99.90;;;;;;6159193;23;20406;-88
2023/09/03 07:10:26;;;;;;;11.45;6.93;;;14.20;99.90;;;;;;6158826;23;20009;-88
2023/09/03 07:12:52;;;;;;;11.38;6.93;;;14.30;99.90;;;;;;6134684;23;20013;-86
2023/09/03 07:15:18;;;;;;;11.25;7.35;;;14.40;99.90;;;;;;6158733;23;20370;-88
2023/09/03 07:17:44;;;;;;;10.70;6.85;;;14.40;99.90;;;;;;6158284;23;20088;-88
2023/09/03 07:20:10;;;;;;;13.38;11.85;;;14.50;99.90;;;;;;6158271;23;20020;-88
2023/09/03 07:22:35;;;;;;;12.75;6.22;;;14.60;99.90;;;;;;6159082;23;20386;-88
2023/09/03 07:25:01;;;;;;;11.65;7.68;;;14.70;99.90;;;;;;6134190;23;20443;-88
2023/09/03 07:27:27;;;;;;;15.43;13.82;;;14.80;99.90;;;;;;6158841;23;20017;-88
2023/09/03 07:29:53;;;;;;;13.05;7.88;;;15.00;99.90;;;;;;6157524;23;20047;-88
2023/09/03 07:32:21;;;;;;;11.75;7.55;;;15.00;99.90;;;;;;6134193;23;20044;-88
2023/09/03 07:34:46;;;;;;;13.95;8.55;;;15.10;99.90;;;;;;6159023;23;20013;-87
2023/09/03 07:37:12;;;;;;;16.30;14.60;;;15.20;99.90;;;;;;6158341;23;20469;-88
2023/09/03 07:39:37;;;;;;;16.35;14.70;;;15.40;99.90;;;;;;6133163;23;20041;-88
2023/09/03 07:42:03;;;;;;;16.17;14.57;;;15.50;99.90;;;;;;6158563;23;20009;-88
2023/09/03 07:44:29;;;;;;;13.65;9.40;;;15.60;99.90;;;;;;6158365;23;20013;-88
2023/09/03 07:46:54;;;;;;;15.93;14.20;;;15.70;99.90;;;;;;6133665;23;20019;-88
2023/09/03 07:49:20;;;;;;;18.25;15.63;;;15.80;99.90;;;;;;6158093;23;20009;-88
2023/09/03 07:51:46;;;;;;;16.92;14.55;;;15.90;99.90;;;;;;6158749;23;20017;-88
2023/09/03 07:54:11;;;;;;;16.60;14.90;;;16.00;99.90;;;;;;6134227;23;20044;-89
2023/09/03 07:56:37;;;;;;;15.18;8.95;;;16.10;99.90;;;;;;6158914;23;20009;-88
2023/09/03 07:59:03;;;;;;;14.02;8.27;;;16.20;99.90;;;;;;6133768;23;20041;-88
2023/09/03 08:01:28;;;;;;;16.25;8.43;;;16.20;99.90;;;;;;6156997;23;20446;-88
2023/09/03 08:03:56;;;;;;;15.30;13.68;;;16.20;99.90;;;;;;6158495;23;20017;-88
2023/09/03 08:06:33;;;;;;;11.57;7.63;;;16.40;99.90;;;;;;6133449;23;20016;-88
2023/09/03 08:08:59;;;;;;;13.88;10.95;;;16.40;99.90;;;;;;6157852;23;20084;-89
2023/09/03 08:11:25;;;;;;;11.20;8.95;;;16.50;99.90;;;;;;6157908;23;20048;-88
2023/09/03 08:13:56;;;;;;;11.40;6.55;;;16.70;99.90;;;;;;6133620;23;20017;-89
2023/09/03 08:16:22;;;;;;;12.37;9.13;;;16.70;99.90;;;;;;6158061;23;20009;-89
2023/09/03 08:18:59;;;;;;;12.90;9.85;;;16.80;99.90;;;;;;6157753;23;20458;-88
2023/09/03 08:21:25;;;;;;;11.98;9.00;;;16.90;99.90;;;;;;6133287;23;20020;-88
2023/09/03 08:23:50;;;;;;;12.93;8.38;;;16.90;99.90;;;;;;6157751;23;20013;-89
2023/09/03 08:26:16;;;;;;;16.38;9.85;;;17.00;99.90;;;;;;6133694;23;20005;-88
2023/09/03 08:28:41;;;;;;;13.43;10.68;;;17.10;99.90;;;;;;6157735;23;20447;-88
2023/09/03 08:31:07;;;;;;;13.73;10.32;;;17.20;99.90;;;;;;6157173;23;20039;-87
2023/09/03 08:33:33;;;;;;;13.27;10.75;;;17.30;99.90;;;;;;6158442;23;20462;-88
2023/09/03 08:36:00;;;;;;;11.45;6.07;;;17.30;99.90;;;;;;6158119;23;20049;-88
2023/09/03 08:38:25;;;;;;;13.18;10.10;;;17.40;99.90;;;;;;6132842;23;20020;-88
2023/09/03 08:40:54;;;;;;;12.07;9.50;;;17.50;99.90;;;;;;6157597;23;20013;-88
2023/09/03 08:43:23;;;;;;;12.07;8.50;;;17.60;99.90;;;;;;6133186;23;20020;-89
2023/09/03 08:45:55;;;;;;;10.40;6.03;;;17.70;99.90;;;;;;6158286;23;20005;-88
2023/09/03 08:48:20;;;;;;;11.52;9.00;;;17.70;99.90;;;;;;6132383;23;20023;-88
2023/09/03 08:50:46;;;;;;;10.57;6.85;;;17.70;99.90;;;;;;6132640;23;20419;-88
2023/09/03 08:53:13;;;;;;;13.80;6.93;;;17.80;99.90;;;;;;6133445;23;20036;-88
2023/09/03 08:55:41;;;;;;;11.15;7.95;;;17.80;99.90;;;;;;6157998;23;20470;-89
2023/09/03 08:58:07;;;;;;;11.88;8.18;;;17.90;99.90;;;;;;6157569;23;20009;-88
2023/09/03 09:00:34;;;;;;;11.90;6.35;;;18.00;99.90;;;;;;6157159;23;20013;-89
2023/09/03 09:03:02;;;;;;;11.75;7.20;;;18.00;99.90;;;;;;6157719;23;20012;-88
2023/09/03 09:05:28;;;;;;;11.95;7.30;;;18.10;99.90;;;;;;6156401;23;20015;-88
2023/09/03 09:07:54;;;;;;;9.13;5.97;;;18.20;99.90;;;;;;6157408;23;20052;-89
2023/09/03 09:10:28;;;;;;;10.32;5.82;;;18.20;99.90;;;;;;6156696;23;20070;-88
2023/09/03 09:13:03;;;;;;;9.10;5.40;;;18.30;99.90;;;;;;6132947;23;20490;-89
2023/09/03 09:15:29;;;;;;;10.93;6.70;;;18.30;99.90;;;;;;6132909;23;20066;-89
2023/09/03 09:17:55;;;;;;;10.00;5.57;;;18.40;99.90;;;;;;6157343;23;20064;-88
2023/09/03 09:20:21;;;;;;;8.10;3.55;;;18.40;99.90;;;;;;6132833;23;20005;-89
2023/09/03 09:22:50;;;;;;;8.10;4.03;;;18.50;99.90;;;;;;6132725;23;20047;-89
2023/09/03 09:25:29;;;;;;;7.28;3.53;;;18.60;99.90;;;;;;6133600;23;20084;-88
2023/09/03 09:27:56;;;;;;;9.77;5.57;;;18.60;99.90;;;;;;6157743;23;20021;-88
2023/09/03 09:30:25;;;;;;;9.80;5.63;;;18.70;99.90;;;;;;6157620;23;20064;-89
2023/09/03 09:33:06;;;;;;;8.50;5.18;;;18.80;99.90;;;;;;6132970;23;20013;-89
2023/09/03 09:35:32;;;;;;;11.48;4.60;;;18.90;99.90;;;;;;6132541;23;20351;-89
2023/09/03 09:38:05;;;;;;;7.40;3.58;;;18.90;99.90;;;;;;6132864;23;20478;-89
2023/09/03 09:40:31;;;;;;;9.05;4.15;;;18.90;99.90;;;;;;6156184;23;20514;-89
2023/09/03 09:43:01;;;;;;;8.25;3.72;;;18.90;99.90;;;;;;6130648;23;20016;-90
2023/09/03 09:45:27;;;;;;;8.55;4.05;;;18.90;99.90;;;;;;6156501;23;20020;-89
2023/09/03 09:48:13;;;;;;;9.55;4.15;;;19.00;99.90;;;;;;6156632;23;20024;-89
2023/09/03 09:50:42;;;;;;;7.72;3.17;;;19.10;99.90;;;;;;6155748;23;20017;-89
2023/09/03 09:53:24;;;;;;;7.72;3.00;;;19.20;99.90;;;;;;6156819;23;20092;-89
2023/09/03 09:56:03;;;;;;;7.55;2.78;;;19.30;99.90;;;;;;6157105;23;20012;-89
2023/09/03 09:58:39;;;;;;;5.95;2.30;;;19.40;99.90;;;;;;6157118;23;20055;-89
2023/09/03 10:01:06;;;;;;;6.95;3.50;;;19.40;99.90;;;;;;6158209;23;20009;-88
2023/09/03 10:03:43;;;;;;;7.35;3.53;;;19.40;99.90;;;;;;6157803;23;20013;-89
2023/09/03 10:06:09;;;;;;;7.65;3.90;;;19.50;99.90;;;;;;6157044;23;20485;-89
2023/09/03 10:08:36;;;;;;;8.15;3.90;;;19.60;99.90;;;;;;6132328;23;20013;-89
2023/09/03 10:11:02;;;;;;;8.13;4.25;;;19.70;99.90;;;;;;6131643;23;20044;-89
2023/09/03 10:13:30;;;;;;;7.13;3.63;;;19.80;99.90;;;;;;6156985;23;20016;-89
2023/09/03 10:16:03;;;;;;;7.07;3.35;;;19.80;99.90;;;;;;6157286;23;20013;-89
2023/09/03 10:18:32;;;;;;;7.53;3.40;;;19.90;99.90;;;;;;6131657;23;20017;-90
2023/09/03 10:20:59;;;;;;;7.65;3.45;;;20.00;99.90;;;;;;6131110;23;20005;-89
2023/09/03 10:23:28;;;;;;;7.05;3.20;;;20.00;99.90;;;;;;6157605;23;20032;-89
2023/09/03 10:25:55;;;;;;;7.20;3.30;;;20.20;99.90;;;;;;6157773;23;20013;-89
2023/09/03 10:28:25;;;;;;;5.70;2.80;;;20.30;99.90;;;;;;6156947;23;20410;-89
2023/09/03 10:30:54;;;;;;;8.75;4.03;;;20.40;99.90;;;;;;6132580;23;20403;-90
2023/09/03 10:33:19;;;;;;;6.90;2.92;;;20.40;99.90;;;;;;6157295;23;20013;-90
2023/09/03 10:36:17;;;;;;;8.10;3.60;;;20.50;99.90;;;;;;6157378;23;20101;-90
2023/09/03 10:38:44;;;;;;;7.93;3.53;;;20.60;99.90;;;;;;6132439;23;20447;-90
2023/09/03 10:41:20;;;;;;;7.07;3.00;;;20.60;99.90;;;;;;6156407;23;20040;-87
2023/09/03 10:43:47;;;;;;;6.88;3.08;;;20.70;99.90;;;;;;6132980;23;20013;-87
2023/09/03 10:46:13;;;;;;;5.55;2.22;;;20.70;99.90;;;;;;6157182;23;20478;-87
2023/09/03 10:48:39;;;;;;;6.13;2.10;;;20.70;99.90;;;;;;6132589;23;20442;-89
2023/09/03 10:51:05;;;;;;;6.55;2.47;;;20.80;99.90;;;;;;6132252;23;20009;-89
2023/09/03 10:53:43;;;;;;;6.10;2.80;;;20.90;99.90;;;;;;6157514;23;20013;-88
2023/09/03 10:56:19;;;;;;;6.85;3.15;;;21.00;99.90;;;;;;6157029;23;20044;-88
2023/09/03 10:58:58;;;;;;;6.40;2.45;;;21.00;99.90;;;;;;6157035;23;20024;-88
2023/09/03 11:01:32;;;;;;;7.25;3.20;;;21.10;99.90;;;;;;6131817;23;20009;-89
2023/09/03 11:03:58;;;;;;;7.40;2.60;;;21.10;99.90;;;;;;6157390;23;20009;-89
2023/09/03 11:06:31;;;;;;;6.68;2.80;;;21.10;99.90;;;;;;6157169;23;20403;-88
2023/09/03 11:08:59;;;;;;;;;;;21.20;99.90;;;;;;6132882;23;20009;-89
2023/09/03 11:11:28;;;;;;;8.00;2.60;;;21.20;99.90;;;;;;6156372;23;19912;-89
2023/09/03 11:13:55;;;;;;;7.80;3.08;;;21.30;99.90;;;;;;6132277;23;20021;-89
2023/09/03 11:16:32;;;;;;;7.15;3.05;;;21.50;99.90;;;;;;6132285;23;20019;-89
2023/09/03 11:18:58;;;;;;;8.05;3.63;;;21.60;99.90;;;;;;6131870;23;20020;-89
2023/09/03 11:21:27;;;;;;;9.60;3.50;;;21.60;99.90;;;;;;6156295;23;20016;-89
2023/09/03 11:24:03;;;;;;;8.35;3.13;;;21.60;99.90;;;;;;6133731;23;20020;-89
2023/09/03 11:26:32;;;;;;;7.47;3.05;;;21.60;99.90;;;;;;6158923;23;20017;-89
2023/09/03 11:29:00;;;;;;;8.13;3.47;;;21.70;99.90;;;;;;6158593;23;20009;-89
2023/09/03 11:31:26;;;;;;;8.45;3.25;;;21.90;99.90;;;;;;6158430;23;20071;-88
2023/09/03 11:33:52;;;;;;;7.45;3.42;;;22.00;99.90;;;;;;6134212;23;20005;-89
2023/09/03 11:36:22;;;;;;;8.05;3.15;;;22.10;99.90;;;;;;6133787;23;20011;-88
2023/09/03 11:38:55;;;;;;;6.85;2.55;;;22.20;99.90;;;;;;6158581;23;20016;-89
2023/09/03 11:41:21;;;;;;;6.30;2.38;;;22.30;99.90;;;;;;6158341;23;20009;-89
2023/09/03 11:43:47;;;;;;;6.20;2.50;;;22.40;99.90;;;;;;6134194;23;20009;-89
2023/09/03 11:46:15;;;;;;;7.32;2.67;;;22.40;99.90;;;;;;6134340;23;20088;-89
2023/09/03 11:48:50;;;;;;;6.28;2.47;;;22.50;96.50;;;;;;6158541;23;20006;-89
2023/09/03 11:51:27;;;;;;;6.82;2.20;;;22.50;93.50;;;;;;6134275;23;20047;-89
2023/09/03 11:53:53;;;;;;;5.53;2.03;;;22.60;93.00;;;;;;6158326;23;20459;-89
2023/09/03 11:56:20;;;;;;;6.25;2.00;;;22.60;95.40;;;;;;6157886;23;20020;-90
2023/09/03 11:59:04;;;;;;;7.50;2.40;;;22.70;94.20;;;;;;6133472;23;20052;-89
2023/09/03 12:01:30;;;;;;;6.82;2.20;;;22.70;93.50;;;;;;6158025;23;20016;-90
2023/09/03 12:03:56;;;;;;;6.70;2.25;;;22.90;93.30;;;;;;6133709;23;20017;-90
2023/09/03 12:06:21;;;;;;;6.57;2.30;;;23.00;92.90;;;;;;6134530;23;20092;-89
2023/09/03 12:08:47;;;;;;;6.00;2.33;;;23.10;92.90;;;;;;6159161;23;20343;-89
2023/09/03 12:11:13;;;;;;;5.72;2.28;;;23.20;90.20;;;;;;6158332;23;20338;-90
2023/09/03 12:13:41;;;;;;;6.22;2.00;;;23.30;90.60;;;;;;6158703;23;20358;-89
2023/09/03 12:16:14;;;;;;;6.03;2.00;;;23.50;89.70;;;;;;6158136;23;20036;-89
2023/09/03 12:18:56;;;;;;;7.07;2.10;;;23.60;87.80;;;;;;6133541;23;20016;-89
2023/09/03 12:21:34;;;;;;;5.82;2.00;;;23.80;88.00;;;;;;6133685;23;20013;-89
2023/09/03 12:24:07;;;;;;;6.88;2.13;;;23.80;88.00;;;;;;6133839;23;20012;-89
2023/09/03 12:26:36;;;;;;;8.55;2.70;;;24.00;89.10;;;;;;6133388;23;20020;-90
2023/09/03 12:29:18;;;;;;;8.20;3.63;;;24.20;87.80;;;;;;6133140;23;20017;-89
2023/09/03 12:31:45;;;;;;;6.20;2.50;;;24.50;85.10;;;;;;6157977;23;20097;-90
2023/09/03 12:34:10;;;;;;;7.65;2.97;;;24.70;83.40;;;;;;6157621;23;20012;-90
2023/09/03 12:36:56;;;;;;;7.13;2.45;;;24.90;83.30;;;;;;6157809;23;20048;-90
2023/09/03 12:39:40;;;;;;;5.95;2.35;;;25.20;82.20;;;;;;6133392;23;20013;-90
2023/09/03 12:42:08;;;;;;;5.05;1.90;;;25.30;83.10;;;;;;6157688;23;20088;-89
2023/09/03 12:44:34;;;;;;;8.57;3.80;;;25.50;82.30;;;;;;6157802;23;20013;-89
2023/09/03 12:47:01;;;;;;;7.60;3.70;;;25.70;82.80;;;;;;6133462;23;20013;-90
2023/09/03 12:49:27;;;;;;;5.25;1.85;;;25.90;81.40;;;;;;6157981;23;20013;-90